Time;durP1;ratioP1;P1;durP2;ratioP2;P2;SDS_P1;SDS_P2;PMS_P1;PMS_P2;Temp;Humidity;BMP_temperature;BMP_pressure;BME280_temperature;BME280_humidity;BME280_pressure;Samples;Min_cycle;Max_cycle;Signal;HPM_P1;HPM_P2
2022/11/22 00:00:24;;;;;;;2.80;2.60;;;;;;;;;;5039755;28;20578;-87
2022/11/22 00:02:51;;;;;;;2.90;2.70;;;;;;;;;;5040570;28;20226;-90
2022/11/22 00:05:19;;;;;;;3.38;3.08;;;;;;;;;;5039841;28;20198;-89
2022/11/22 00:07:47;;;;;;;3.25;2.95;;;;;;;;;;5041024;28;20292;-89
2022/11/22 00:10:15;;;;;;;3.17;2.90;;;;;;;;;;5041029;28;20217;-88
2022/11/22 00:12:45;;;;;;;3.70;2.88;;;;;;;;;;5038700;28;20237;-88
2022/11/22 00:15:13;;;;;;;3.03;2.83;;;;;;;;;;5040393;28;20206;-87
2022/11/22 00:17:41;;;;;;;2.80;2.60;;;;;;;;;;5043570;28;20202;-86
2022/11/22 00:20:10;;;;;;;2.60;2.40;;;;;;;;;;5043452;28;20241;-87
2022/11/22 00:22:38;;;;;;;3.40;2.15;;;;;;;;;;5042651;28;20305;-86
2022/11/22 00:25:07;;;;;;;3.08;2.60;;;;;;;;;;5044745;28;20201;-87
2022/11/22 00:27:35;;;;;;;2.55;2.35;;;;;;;;;;5042620;28;20308;-89
2022/11/22 00:30:04;;;;;;;2.97;2.05;;;;;;;;;;5042953;28;20236;-89
2022/11/22 00:32:32;;;;;;;3.47;2.33;;;;;;;;;;5043261;28;20254;-87
2022/11/22 00:35:00;;;;;;;3.30;3.03;;;;;;;;;;5043976;28;20198;-87
2022/11/22 00:37:27;;;;;;;2.40;2.20;;;;;;;;;;5046171;28;20205;-87
2022/11/22 00:39:55;;;;;;;2.65;2.45;;;;;;;;;;5047628;28;20303;-85
2022/11/22 00:42:22;;;;;;;3.80;3.40;;;;;;;;;;5061881;28;20327;-85
2022/11/22 00:44:50;;;;;;;5.85;4.18;;;;;;;;;;5063105;28;20237;-86
2022/11/22 00:47:19;;;;;;;7.50;4.80;;;;;;;;;;5062388;28;20221;-86
2022/11/22 00:49:46;;;;;;;9.18;4.97;;;;;;;;;;5062480;28;20263;-85
2022/11/22 00:52:14;;;;;;;5.30;3.83;;;;;;;;;;5063078;28;20253;-85
2022/11/22 00:54:41;;;;;;;6.55;4.40;;;;;;;;;;5063479;28;20237;-86
2022/11/22 00:57:09;;;;;;;4.45;3.25;;;;;;;;;;5064164;28;20626;-87
2022/11/22 00:59:36;;;;;;;4.25;3.35;;;;;;;;;;5062368;28;20260;-87
2022/11/22 01:02:04;;;;;;;6.07;4.15;;;;;;;;;;5062663;28;20259;-88
2022/11/22 01:04:33;;;;;;;7.50;4.25;;;;;;;;;;5062533;28;20229;-88
2022/11/22 01:07:00;;;;;;;5.07;4.35;;;;;;;;;;5061970;28;20285;-87
2022/11/22 01:09:28;;;;;;;5.25;3.47;;;;;;;;;;5062101;28;20232;-85
2022/11/22 01:11:55;;;;;;;3.28;2.97;;;;;;;;;;5061783;28;20298;-84
2022/11/22 01:14:23;;;;;;;6.50;3.47;;;;;;;;;;5060199;28;20730;-87
2022/11/22 01:16:50;;;;;;;5.05;2.80;;;;;;;;;;5060701;28;20236;-87
2022/11/22 01:19:18;;;;;;;3.88;2.83;;;;;;;;;;5060425;28;20776;-86
2022/11/22 01:21:47;;;;;;;3.70;2.78;;;;;;;;;;5060974;28;20709;-86
2022/11/22 01:24:14;;;;;;;2.88;2.60;;;;;;;;;;5060988;28;20237;-86
2022/11/22 01:26:42;;;;;;;3.60;3.20;;;;;;;;;;5060517;28;20206;-86
2022/11/22 01:29:09;;;;;;;3.08;2.88;;;;;;;;;;5060795;28;20249;-85
2022/11/22 01:31:37;;;;;;;2.78;2.30;;;;;;;;;;5060693;28;20225;-86
2022/11/22 01:34:06;;;;;;;3.35;2.70;;;;;;;;;;5060002;28;20233;-86
2022/11/22 01:36:34;;;;;;;2.38;2.10;;;;;;;;;;5059042;28;20209;-85
2022/11/22 01:39:03;;;;;;;2.85;2.65;;;;;;;;;;5059496;28;20265;-86
2022/11/22 01:41:30;;;;;;;3.55;2.72;;;;;;;;;;5059847;28;20260;-86
2022/11/22 01:43:58;;;;;;;2.85;2.05;;;;;;;;;;5059481;28;20256;-85
2022/11/22 01:46:32;;;;;;;2.45;2.25;;;;;;;;;;5059242;28;20713;-85
2022/11/22 01:49:04;;;;;;;3.35;2.10;;;;;;;;;;5058975;28;20206;-86
2022/11/22 01:51:35;;;;;;;2.80;2.60;;;;;;;;;;5060094;28;20773;-85
2022/11/22 01:54:08;;;;;;;3.90;2.08;;;;;;;;;;5059927;28;20237;-85
2022/11/22 01:56:36;;;;;;;2.00;1.80;;;;;;;;;;5060152;28;20608;-85
2022/11/22 01:59:07;;;;;;;3.95;2.40;;;;;;;;;;5059774;28;20241;-85
2022/11/22 02:01:34;;;;;;;2.38;2.13;;;;;;;;;;5059265;28;20297;-82
2022/11/22 02:04:04;;;;;;;2.55;2.20;;;;;;;;;;5059524;28;20239;-84
2022/11/22 02:06:39;;;;;;;2.78;2.55;;;;;;;;;;5058878;28;20205;-85
2022/11/22 02:09:12;;;;;;;4.68;2.22;;;;;;;;;;5060616;28;20694;-84
2022/11/22 02:11:48;;;;;;;3.03;2.40;;;;;;;;;;5051255;28;20241;-85
2022/11/22 02:14:18;;;;;;;4.78;2.88;;;;;;;;;;5039357;28;20277;-85
2022/11/22 02:16:46;;;;;;;2.55;2.35;;;;;;;;;;5038975;28;20321;-84
2022/11/22 02:19:18;;;;;;;3.00;2.13;;;;;;;;;;5038647;28;20222;-83
2022/11/22 02:21:49;;;;;;;4.65;3.30;;;;;;;;;;5039786;28;20313;-86
2022/11/22 02:24:21;;;;;;;2.15;2.00;;;;;;;;;;5041682;28;20222;-87
2022/11/22 02:26:50;;;;;;;2.50;2.30;;;;;;;;;;5041611;28;20229;-86
2022/11/22 02:29:19;;;;;;;2.45;2.00;;;;;;;;;;5041837;28;20250;-86
2022/11/22 02:31:48;;;;;;;4.45;2.88;;;;;;;;;;5058794;28;20725;-86
2022/11/22 02:34:15;;;;;;;2.92;2.03;;;;;;;;;;5061231;28;20284;-86
2022/11/22 02:36:45;;;;;;;5.18;2.50;;;;;;;;;;5061912;28;20201;-85
2022/11/22 02:39:18;;;;;;;4.72;2.50;;;;;;;;;;5060350;28;20198;-86
2022/11/22 02:41:46;;;;;;;4.00;2.55;;;;;;;;;;5061306;28;20229;-86
2022/11/22 02:44:15;;;;;;;2.50;2.25;;;;;;;;;;5061425;28;20202;-87
2022/11/22 02:46:48;;;;;;;2.45;2.25;;;;;;;;;;5062153;28;20263;-86
2022/11/22 02:49:18;;;;;;;2.75;2.63;;;;;;;;;;5062093;28;20288;-87
2022/11/22 02:51:46;;;;;;;3.20;2.90;;;;;;;;;;5061752;28;20222;-87
2022/11/22 02:54:14;;;;;;;3.47;3.17;;;;;;;;;;5062059;28;20716;-85
2022/11/22 02:56:42;;;;;;;4.25;2.90;;;;;;;;;;5061266;28;20269;-85
2022/11/22 02:59:09;;;;;;;2.60;2.40;;;;;;;;;;5061648;28;20748;-87
2022/11/22 03:01:39;;;;;;;3.08;2.78;;;;;;;;;;5061921;28;20844;-86
2022/11/22 03:04:06;;;;;;;3.45;3.00;;;;;;;;;;5061304;28;20649;-86
2022/11/22 03:06:34;;;;;;;2.65;2.45;;;;;;;;;;5061575;28;20296;-86
2022/11/22 03:09:01;;;;;;;2.33;2.10;;;;;;;;;;5060720;28;20388;-86
2022/11/22 03:11:29;;;;;;;2.45;2.25;;;;;;;;;;5061270;28;20257;-87
2022/11/22 03:13:56;;;;;;;2.58;2.38;;;;;;;;;;5060995;28;20225;-85
2022/11/22 03:16:24;;;;;;;2.75;2.55;;;;;;;;;;5061020;28;20261;-87
2022/11/22 03:18:53;;;;;;;2.65;2.45;;;;;;;;;;5062649;28;20301;-88
2022/11/22 03:21:20;;;;;;;3.17;2.45;;;;;;;;;;5063658;28;20622;-88
2022/11/22 03:23:48;;;;;;;3.20;2.90;;;;;;;;;;5062743;28;20259;-88
2022/11/22 03:26:15;;;;;;;2.75;2.55;;;;;;;;;;5063815;28;20228;-88
2022/11/22 03:28:43;;;;;;;3.55;3.05;;;;;;;;;;5062148;28;20222;-88
2022/11/22 03:31:10;;;;;;;4.78;2.95;;;;;;;;;;5061280;28;20312;-88
2022/11/22 03:33:38;;;;;;;2.60;2.40;;;;;;;;;;5061464;28;20633;-88
2022/11/22 03:36:07;;;;;;;2.58;2.40;;;;;;;;;;5059983;28;20228;-89
2022/11/22 03:38:35;;;;;;;3.47;3.17;;;;;;;;;;5060058;28;20198;-88
2022/11/22 03:41:03;;;;;;;3.63;2.78;;;;;;;;;;5060872;28;20317;-88
2022/11/22 03:43:31;;;;;;;3.40;2.47;;;;;;;;;;5061120;28;20232;-88
2022/11/22 03:45:58;;;;;;;2.38;2.17;;;;;;;;;;5060975;28;20275;-87
2022/11/22 03:48:26;;;;;;;3.92;2.58;;;;;;;;;;5060303;28;20259;-88
2022/11/22 03:50:53;;;;;;;4.38;2.55;;;;;;;;;;5061900;28;20636;-88
2022/11/22 03:53:23;;;;;;;2.63;2.10;;;;;;;;;;5062428;28;20220;-86
2022/11/22 03:55:50;;;;;;;3.67;2.78;;;;;;;;;;5060144;28;20197;-87
2022/11/22 03:58:18;;;;;;;1.80;1.70;;;;;;;;;;5061147;28;20652;-86
2022/11/22 04:00:45;;;;;;;3.60;2.60;;;;;;;;;;5060963;28;20286;-86
2022/11/22 04:03:13;;;;;;;2.10;2.00;;;;;;;;;;5062792;28;20208;-85
2022/11/22 04:05:40;;;;;;;2.40;2.05;;;;;;;;;;5062293;28;20229;-87
2022/11/22 04:08:08;;;;;;;2.55;2.05;;;;;;;;;;5060045;28;20274;-86
2022/11/22 04:10:37;;;;;;;4.47;2.40;;;;;;;;;;5061628;28;20310;-84
2022/11/22 04:13:04;;;;;;;3.15;2.58;;;;;;;;;;5060655;28;20289;-84
2022/11/22 04:15:31;;;;;;;2.42;2.22;;;;;;;;;;5062160;28;20252;-87
2022/11/22 04:17:58;;;;;;;1.98;1.88;;;;;;;;;;5062804;28;20233;-86
2022/11/22 04:23:17;;;;;;;3.13;2.85;;;;;;;;;;5062790;28;20228;-87
2022/11/22 04:25:47;;;;;;;5.03;3.10;;;;;;;;;;5062306;28;20240;-87
2022/11/22 04:28:17;;;;;;;2.85;2.50;;;;;;;;;;5062177;28;20201;-87
2022/11/22 04:33:30;;;;;;;2.85;2.13;;;;;;;;;;5062015;28;20726;-84
2022/11/22 04:35:58;;;;;;;2.67;2.47;;;;;;;;;;5061478;28;20201;-85
2022/11/22 04:38:26;;;;;;;4.25;3.22;;;;;;;;;;5061779;28;20716;-86
2022/11/22 04:40:55;;;;;;;3.25;2.95;;;;;;;;;;5065044;28;20232;-88
2022/11/22 04:46:10;;;;;;;2.47;2.20;;;;;;;;;;5070896;28;20228;-87
2022/11/22 04:48:38;;;;;;;3.50;3.17;;;;;;;;;;5070078;28;20268;-86
2022/11/22 04:53:52;;;;;;;2.78;2.58;;;;;;;;;;5068451;28;20289;-87
2022/11/22 04:56:21;;;;;;;3.08;2.88;;;;;;;;;;5063554;28;20225;-86
2022/11/22 04:58:50;;;;;;;2.72;2.53;;;;;;;;;;5060908;28;20244;-86
2022/11/22 05:01:17;;;;;;;3.25;2.75;;;;;;;;;;5061649;28;20281;-87
2022/11/22 05:03:45;;;;;;;2.67;2.47;;;;;;;;;;5060443;28;20598;-86
2022/11/22 05:06:13;;;;;;;2.97;2.78;;;;;;;;;;5059889;28;20201;-85
2022/11/22 05:08:41;;;;;;;2.38;2.17;;;;;;;;;;5059788;28;20212;-86
2022/11/22 05:11:08;;;;;;;2.90;2.30;;;;;;;;;;5055302;28;20307;-86
2022/11/22 05:13:39;;;;;;;3.83;2.55;;;;;;;;;;5040271;28;20234;-86
2022/11/22 05:16:09;;;;;;;3.38;2.83;;;;;;;;;;5039416;28;20219;-85
2022/11/22 05:18:37;;;;;;;3.05;2.15;;;;;;;;;;5039677;28;20288;-86
2022/11/22 05:21:05;;;;;;;4.20;3.13;;;;;;;;;;5039802;28;20214;-88
2022/11/22 05:26:18;;;;;;;2.92;2.63;;;;;;;;;;5040176;28;20201;-86
2022/11/22 05:28:47;;;;;;;2.47;2.28;;;;;;;;;;5039550;28;20329;-84
2022/11/22 05:31:17;;;;;;;1.90;1.80;;;;;;;;;;5040377;28;20250;-85
2022/11/22 05:33:46;;;;;;;2.20;2.00;;;;;;;;;;5043102;28;20214;-85
2022/11/22 05:36:14;;;;;;;2.55;2.35;;;;;;;;;;5039694;28;20646;-85
2022/11/22 05:38:41;;;;;;;2.15;2.05;;;;;;;;;;5039137;28;20266;-85
2022/11/22 05:41:14;;;;;;;2.28;2.10;;;;;;;;;;5039730;28;20224;-86
2022/11/22 05:43:43;;;;;;;2.38;2.20;;;;;;;;;;5039782;28;20214;-85
2022/11/22 05:46:13;;;;;;;2.30;2.20;;;;;;;;;;5039795;28;20226;-86
2022/11/22 05:48:43;;;;;;;2.95;2.40;;;;;;;;;;5039810;28;20207;-83
2022/11/22 05:51:13;;;;;;;2.42;2.22;;;;;;;;;;5039340;28;20253;-86
2022/11/22 05:53:41;;;;;;;2.85;2.63;;;;;;;;;;5039386;28;20245;-85
2022/11/22 05:56:09;;;;;;;3.03;2.78;;;;;;;;;;5040780;28;20622;-85
2022/11/22 05:58:37;;;;;;;3.42;2.88;;;;;;;;;;5040027;28;20256;-86
2022/11/22 06:01:07;;;;;;;3.40;2.55;;;;;;;;;;5040862;28;20253;-86
2022/11/22 06:03:36;;;;;;;2.83;2.40;;;;;;;;;;5040715;28;20242;-86
2022/11/22 06:06:04;;;;;;;2.80;2.60;;;;;;;;;;5040518;28;20210;-86
2022/11/22 06:08:37;;;;;;;2.75;2.55;;;;;;;;;;5039011;28;20206;-85
2022/11/22 06:11:06;;;;;;;3.00;2.80;;;;;;;;;;5044552;28;20604;-85
2022/11/22 06:13:35;;;;;;;3.38;2.55;;;;;;;;;;5058208;28;20256;-85
2022/11/22 06:16:03;;;;;;;2.75;2.55;;;;;;;;;;5058221;28;20210;-85
2022/11/22 06:18:31;;;;;;;6.38;3.08;;;;;;;;;;5058302;28;20265;-85
2022/11/22 06:21:02;;;;;;;3.03;2.83;;;;;;;;;;5058554;28;20288;-86
2022/11/22 06:23:30;;;;;;;2.03;1.92;;;;;;;;;;5058175;28;20331;-85
2022/11/22 06:25:59;;;;;;;2.28;2.08;;;;;;;;;;5058223;28;20641;-85
2022/11/22 06:28:26;;;;;;;2.20;2.10;;;;;;;;;;5057816;28;20204;-86
2022/11/22 06:30:54;;;;;;;2.42;2.22;;;;;;;;;;5060759;28;20317;-85
2022/11/22 06:33:23;;;;;;;3.88;2.65;;;;;;;;;;5059029;28;20621;-85
2022/11/22 06:35:50;;;;;;;2.70;2.42;;;;;;;;;;5055373;28;20666;-83
2022/11/22 06:38:19;;;;;;;2.60;2.40;;;;;;;;;;5052220;28;20604;-85
2022/11/22 06:40:47;;;;;;;2.97;2.53;;;;;;;;;;5056218;28;20273;-83
2022/11/22 06:43:15;;;;;;;3.38;2.42;;;;;;;;;;5056122;28;20292;-85
2022/11/22 06:45:43;;;;;;;2.55;2.35;;;;;;;;;;5055589;28;20642;-85
2022/11/22 06:48:10;;;;;;;3.20;3.00;;;;;;;;;;5056474;28;20288;-84
2022/11/22 06:50:38;;;;;;;3.03;2.72;;;;;;;;;;5056187;28;20285;-85
2022/11/22 06:53:05;;;;;;;2.30;2.10;;;;;;;;;;5056021;28;20314;-84
2022/11/22 06:55:34;;;;;;;2.70;2.50;;;;;;;;;;5055449;28;20284;-85
2022/11/22 06:58:01;;;;;;;2.35;2.15;;;;;;;;;;5055702;28;20612;-84
2022/11/22 07:00:29;;;;;;;2.65;1.85;;;;;;;;;;5054756;28;20202;-86
2022/11/22 07:02:56;;;;;;;2.65;2.45;;;;;;;;;;5055085;28;20270;-86
2022/11/22 07:05:24;;;;;;;2.42;2.20;;;;;;;;;;5051965;28;20310;-86
2022/11/22 07:07:51;;;;;;;2.10;2.00;;;;;;;;;;5034976;28;20297;-86
2022/11/22 07:10:19;;;;;;;2.22;2.03;;;;;;;;;;5035683;28;20230;-86
2022/11/22 07:12:47;;;;;;;2.50;2.30;;;;;;;;;;5053258;28;20311;-86
2022/11/22 07:15:15;;;;;;;2.95;2.38;;;;;;;;;;5054788;28;20300;-86
2022/11/22 07:17:43;;;;;;;2.83;2.63;;;;;;;;;;5054724;28;20402;-86
2022/11/22 07:20:11;;;;;;;2.50;2.30;;;;;;;;;;5054760;28;20564;-85
2022/11/22 07:22:39;;;;;;;1.77;1.67;;;;;;;;;;5054194;28;20258;-85
2022/11/22 07:25:07;;;;;;;1.83;1.73;;;;;;;;;;5054443;28;20229;-86
2022/11/22 07:27:35;;;;;;;1.98;1.88;;;;;;;;;;5055172;28;20733;-86
2022/11/22 07:30:05;;;;;;;2.38;2.08;;;;;;;;;;5045631;28;20198;-86
2022/11/22 07:32:32;;;;;;;2.50;2.30;;;;;;;;;;5035143;28;20230;-85
2022/11/22 07:35:00;;;;;;;2.55;2.35;;;;;;;;;;5034672;28;20285;-87
2022/11/22 07:37:27;;;;;;;1.80;1.70;;;;;;;;;;5054709;28;20288;-85
2022/11/22 07:39:55;;;;;;;2.40;2.20;;;;;;;;;;5054636;28;20241;-86
2022/11/22 07:42:23;;;;;;;2.40;2.30;;;;;;;;;;5054500;28;20263;-86
2022/11/22 07:44:50;;;;;;;2.00;1.80;;;;;;;;;;5054152;28;20662;-86
2022/11/22 07:47:19;;;;;;;1.75;1.65;;;;;;;;;;5054334;28;20295;-85
2022/11/22 07:49:46;;;;;;;3.33;2.63;;;;;;;;;;5053950;28;20244;-84
2022/11/22 07:52:14;;;;;;;2.40;2.20;;;;;;;;;;5053795;28;20236;-87
2022/11/22 07:54:41;;;;;;;2.30;2.20;;;;;;;;;;5053808;28;20225;-86
2022/11/22 07:57:09;;;;;;;2.40;2.22;;;;;;;;;;5054047;28;20205;-86
2022/11/22 07:59:36;;;;;;;2.20;2.00;;;;;;;;;;5053368;28;20202;-86
2022/11/22 08:02:04;;;;;;;3.10;2.45;;;;;;;;;;5053420;28;20274;-87
2022/11/22 08:04:33;;;;;;;2.67;2.47;;;;;;;;;;5053274;28;20288;-86
2022/11/22 08:07:00;;;;;;;2.78;2.58;;;;;;;;;;5053830;28;20209;-87
2022/11/22 08:09:27;;;;;;;2.55;2.33;;;;;;;;;;5054033;28;20202;-86
2022/11/22 08:11:55;;;;;;;2.10;2.00;;;;;;;;;;5053417;28;20316;-86
2022/11/22 08:14:22;;;;;;;2.10;2.00;;;;;;;;;;5054210;28;20209;-86
2022/11/22 08:16:50;;;;;;;2.58;2.38;;;;;;;;;;5053875;28;20551;-85
2022/11/22 08:19:18;;;;;;;2.55;2.35;;;;;;;;;;5054031;28;20225;-86
2022/11/22 08:21:48;;;;;;;2.45;2.25;;;;;;;;;;5054456;28;20213;-85
2022/11/22 08:24:16;;;;;;;3.42;3.10;;;;;;;;;;5053697;28;20276;-84
2022/11/22 08:26:44;;;;;;;2.95;2.70;;;;;;;;;;5053773;28;20392;-87
2022/11/22 08:29:13;;;;;;;2.45;2.25;;;;;;;;;;5054214;28;20293;-86
2022/11/22 08:31:41;;;;;;;2.20;1.77;;;;;;;;;;5053695;28;20350;-86
2022/11/22 08:34:08;;;;;;;2.22;2.03;;;;;;;;;;5053542;28;20288;-86
2022/11/22 08:36:36;;;;;;;2.40;2.20;;;;;;;;;;5054578;28;20229;-85
2022/11/22 08:39:05;;;;;;;3.45;2.75;;;;;;;;;;5057122;28;20281;-84
2022/11/22 08:41:32;;;;;;;4.22;2.58;;;;;;;;;;5050330;28;20291;-85
2022/11/22 08:44:00;;;;;;;3.45;3.00;;;;;;;;;;5037731;28;20311;-85
2022/11/22 08:46:27;;;;;;;3.28;2.97;;;;;;;;;;5037258;28;20245;-86
2022/11/22 08:48:55;;;;;;;3.78;3.00;;;;;;;;;;5036654;28;20610;-85
2022/11/22 08:51:22;;;;;;;6.13;2.97;;;;;;;;;;5036315;28;20261;-84
2022/11/22 08:53:50;;;;;;;3.38;3.08;;;;;;;;;;5037327;28;20305;-83
2022/11/22 08:56:18;;;;;;;4.53;2.95;;;;;;;;;;5037542;28;20274;-87
2022/11/22 08:58:46;;;;;;;4.07;2.80;;;;;;;;;;5038123;28;20297;-85
2022/11/22 09:01:15;;;;;;;3.97;2.90;;;;;;;;;;5037067;28;20233;-87
2022/11/22 09:03:44;;;;;;;3.28;3.03;;;;;;;;;;5037190;28;20187;-86
2022/11/22 09:06:13;;;;;;;2.33;2.13;;;;;;;;;;5046507;28;20229;-86
2022/11/22 09:08:41;;;;;;;4.90;3.28;;;;;;;;;;5057458;28;20288;-86
2022/11/22 09:11:10;;;;;;;4.85;3.60;;;;;;;;;;5052209;28;20230;-85
2022/11/22 09:13:40;;;;;;;3.47;3.17;;;;;;;;;;5036936;28;20197;-86
2022/11/22 09:16:10;;;;;;;4.22;3.55;;;;;;;;;;5037025;28;20195;-86
2022/11/22 09:18:38;;;;;;;3.53;3.20;;;;;;;;;;5036529;28;20222;-85
2022/11/22 09:21:09;;;;;;;6.50;3.20;;;;;;;;;;5036345;28;20312;-87
2022/11/22 09:23:38;;;;;;;4.57;4.15;;;;;;;;;;5036842;28;20282;-85
2022/11/22 09:26:09;;;;;;;7.80;4.22;;;;;;;;;;5036934;28;20273;-87
2022/11/22 09:28:39;;;;;;;7.05;3.88;;;;;;;;;;5036891;28;20617;-86
2022/11/22 09:31:12;;;;;;;6.47;3.30;;;;;;;;;;5037070;28;20250;-86
2022/11/22 09:33:43;;;;;;;3.80;3.03;;;;;;;;;;5036773;28;20298;-87
2022/11/22 09:36:14;;;;;;;3.65;2.90;;;;;;;;;;5047029;28;20206;-87
2022/11/22 09:38:43;;;;;;;3.40;3.10;;;;;;;;;;5056029;28;20645;-86
2022/11/22 09:41:41;;;;;;;3.40;3.08;;;;;;;;;;5056898;28;20680;-86
2022/11/22 09:44:17;;;;;;;4.10;3.22;;;;;;;;;;5055780;28;20186;-86
2022/11/22 09:46:53;;;;;;;5.80;2.85;;;;;;;;;;5056527;28;20354;-86
2022/11/22 09:49:34;;;;;;;3.28;2.25;;;;;;;;;;5034841;28;20655;-87
2022/11/22 09:52:06;;;;;;;3.10;2.50;;;;;;;;;;5035976;28;20309;-87
2022/11/22 09:54:45;;;;;;;6.07;2.53;;;;;;;;;;5035582;28;20256;-89
2022/11/22 09:57:19;;;;;;;4.35;2.45;;;;;;;;;;5035989;28;20241;-87
2022/11/22 10:00:03;;;;;;;2.28;2.05;;;;;;;;;;5035052;28;20285;-86
2022/11/22 10:02:35;;;;;;;3.20;2.42;;;;;;;;;;5035461;28;20304;-87
2022/11/22 10:05:12;;;;;;;3.47;2.58;;;;;;;;;;5034787;28;20262;-87
2022/11/22 10:07:43;;;;;;;4.00;2.75;;;;;;;;;;5035139;28;20265;-86
2022/11/22 10:10:15;;;;;;;2.75;2.05;;;;;;;;;;5034667;28;20273;-87
2022/11/22 10:12:48;;;;;;;1.80;1.70;;;;;;;;;;5051658;28;20383;-87
2022/11/22 10:15:31;;;;;;;3.63;2.20;;;;;;;;;;5054043;28;20263;-87
2022/11/22 10:18:03;;;;;;;8.93;2.35;;;;;;;;;;5043192;28;20639;-87
2022/11/22 10:20:35;;;;;;;4.57;3.20;;;;;;;;;;5033930;28;20186;-87
2022/11/22 10:23:10;;;;;;;3.78;2.65;;;;;;;;;;5034101;28;20222;-88
2022/11/22 10:25:40;;;;;;;7.93;2.95;;;;;;;;;;5034064;28;20186;-87
2022/11/22 10:28:15;;;;;;;3.50;2.42;;;;;;;;;;5035368;28;20435;-87
2022/11/22 10:30:54;;;;;;;2.53;2.33;;;;;;;;;;5033406;28;20281;-85
2022/11/22 10:33:27;;;;;;;3.33;2.30;;;;;;;;;;5033990;28;20648;-87
2022/11/22 10:36:12;;;;;;;4.28;2.35;;;;;;;;;;5041293;28;20288;-85
2022/11/22 10:38:53;;;;;;;3.35;2.22;;;;;;;;;;5053321;28;20285;-87
2022/11/22 10:41:35;;;;;;;2.90;2.58;;;;;;;;;;5053293;28;20270;-87
2022/11/22 10:44:15;;;;;;;4.13;2.33;;;;;;;;;;5053537;28;20320;-89
2022/11/22 10:46:51;;;;;;;2.63;1.92;;;;;;;;;;5053791;28;20647;-87
2022/11/22 10:49:41;;;;;;;3.03;2.05;;;;;;;;;;5053095;28;20268;-88
2022/11/22 10:52:26;;;;;;;2.28;1.60;;;;;;;;;;5053366;28;20690;-87
2022/11/22 10:55:01;;;;;;;3.05;2.70;;;;;;;;;;5053418;28;20205;-87
2022/11/22 10:57:41;;;;;;;4.03;2.40;;;;;;;;;;5053364;28;20217;-87
2022/11/22 11:00:20;;;;;;;4.40;2.85;;;;;;;;;;5052917;28;20240;-88
2022/11/22 11:03:12;;;;;;;4.90;2.30;;;;;;;;;;5053371;28;20218;-87
2022/11/22 11:05:46;;;;;;;2.67;2.08;;;;;;;;;;5051264;28;20277;-87
2022/11/22 11:08:17;;;;;;;4.68;2.13;;;;;;;;;;5053393;28;20679;-87
2022/11/22 11:10:45;;;;;;;3.38;2.40;;;;;;;;;;5052428;28;20217;-87
2022/11/22 11:13:22;;;;;;;4.10;2.45;;;;;;;;;;5033244;28;20283;-87
2022/11/22 11:15:53;;;;;;;6.95;2.50;;;;;;;;;;5033292;28;20620;-87
2022/11/22 11:18:27;;;;;;;3.22;2.30;;;;;;;;;;5033220;28;20226;-86
2022/11/22 11:20:58;;;;;;;3.90;2.15;;;;;;;;;;5033156;28;20368;-87
2022/11/22 11:23:27;;;;;;;3.15;1.95;;;;;;;;;;5033226;28;20221;-87
2022/11/22 11:25:55;;;;;;;1.83;1.65;;;;;;;;;;5033187;28;20191;-87
2022/11/22 11:28:26;;;;;;;3.42;1.70;;;;;;;;;;5032563;28;20305;-87
2022/11/22 11:30:56;;;;;;;2.03;1.77;;;;;;;;;;5032991;28;20269;-87
2022/11/22 11:33:33;;;;;;;4.80;2.15;;;;;;;;;;5033094;28;20249;-85
2022/11/22 11:36:05;;;;;;;5.53;2.20;;;;;;;;;;5041689;28;20202;-86
2022/11/22 11:38:38;;;;;;;3.75;1.75;;;;;;;;;;5053329;28;20232;-86
2022/11/22 11:41:22;;;;;;;5.97;2.08;;;;;;;;;;5052740;28;20310;-86
2022/11/22 11:43:54;;;;;;;2.90;1.52;;;;;;;;;;5052654;28;20277;-87
2022/11/22 11:46:24;;;;;;;3.80;1.90;;;;;;;;;;5052747;28;20273;-86
2022/11/22 11:48:56;;;;;;;5.63;1.88;;;;;;;;;;5052963;28;20625;-86
2022/11/22 11:51:31;;;;;;;3.72;2.17;;;;;;;;;;5052469;28;20304;-87
2022/11/22 11:54:05;;;;;;;3.25;2.00;;;;;;;;;;5052659;28;20224;-87
2022/11/22 11:56:48;;;;;;;3.83;1.60;;;;;;;;;;5052279;28;20277;-87
2022/11/22 11:59:19;;;;;;;4.18;1.33;;;;;;;;;;5052452;28;20291;-85
2022/11/22 12:01:55;;;;;;;2.42;1.70;;;;;;;;;;5052684;28;20221;-87
2022/11/22 12:04:50;;;;;;;2.83;1.73;;;;;;;;;;5052765;28;20265;-86
2022/11/22 12:07:25;;;;;;;2.60;1.52;;;;;;;;;;5053289;28;20196;-85
2022/11/22 12:09:56;;;;;;;4.00;2.15;;;;;;;;;;5053697;28;20301;-86
2022/11/22 12:12:42;;;;;;;4.65;1.60;;;;;;;;;;5054526;28;20257;-86
2022/11/22 12:15:17;;;;;;;1.70;1.40;;;;;;;;;;5057952;28;20205;-85
2022/11/22 12:18:01;;;;;;;2.63;1.30;;;;;;;;;;5057860;28;20268;-85
2022/11/22 12:20:40;;;;;;;1.52;1.40;;;;;;;;;;5057597;28;20186;-86
2022/11/22 12:23:17;;;;;;;3.40;1.73;;;;;;;;;;5058272;28;20273;-85
2022/11/22 12:25:46;;;;;;;4.53;1.50;;;;;;;;;;5057376;28;20319;-85
2022/11/22 12:28:19;;;;;;;5.63;2.42;;;;;;;;;;5057732;28;20225;-83
2022/11/22 12:30:48;;;;;;;2.35;1.75;;;;;;;;;;5057023;28;20631;-84
2022/11/22 12:33:21;;;;;;;2.35;1.63;;;;;;;;;;5062497;28;20670;-84
2022/11/22 12:35:50;;;;;;;3.78;1.80;;;;;;;;;;5055131;28;20289;-86
2022/11/22 12:38:20;;;;;;;2.88;1.88;;;;;;;;;;5042137;28;20222;-84
2022/11/22 12:40:51;;;;;;;3.92;1.90;;;;;;;;;;5044656;28;20635;-85
2022/11/22 12:43:24;;;;;;;2.30;1.40;;;;;;;;;;5062270;28;20215;-87
2022/11/22 12:45:53;;;;;;;3.80;1.92;;;;;;;;;;5062518;28;20254;-86
2022/11/22 12:48:25;;;;;;;3.05;1.45;;;;;;;;;;5062302;28;20778;-86
2022/11/22 12:50:59;;;;;;;3.75;1.65;;;;;;;;;;5061806;28;20265;-86
2022/11/22 12:53:30;;;;;;;2.00;1.60;;;;;;;;;;5061796;28;20222;-86
2022/11/22 12:56:04;;;;;;;3.72;1.30;;;;;;;;;;5063842;28;20244;-85
2022/11/22 12:58:37;;;;;;;1.95;1.80;;;;;;;;;;5062892;28;20217;-86
2022/11/22 13:01:13;;;;;;;2.35;1.50;;;;;;;;;;5063595;28;20257;-85
2022/11/22 13:03:49;;;;;;;2.05;1.50;;;;;;;;;;5063100;28;20186;-84
2022/11/22 13:06:23;;;;;;;4.85;1.70;;;;;;;;;;5062704;28;20206;-84
2022/11/22 13:09:00;;;;;;;4.80;1.70;;;;;;;;;;5062864;28;20616;-86
2022/11/22 13:11:32;;;;;;;2.63;1.40;;;;;;;;;;5076318;22;20281;-87
2022/11/22 13:14:10;;;;;;;1.80;1.30;;;;;;;;;;5039172;28;20317;-88
2022/11/22 13:16:38;;;;;;;2.42;1.15;;;;;;;;;;5040773;28;20226;-88
2022/11/22 13:19:07;;;;;;;1.70;1.30;;;;;;;;;;5039389;28;20671;-89
2022/11/22 13:21:46;;;;;;;1.80;1.50;;;;;;;;;;5039565;28;20297;-88
2022/11/22 13:24:31;;;;;;;2.03;1.40;;;;;;;;;;5039541;28;20305;-88
2022/11/22 13:27:11;;;;;;;3.80;1.42;;;;;;;;;;5039086;28;20206;-88
2022/11/22 13:29:41;;;;;;;3.10;1.60;;;;;;;;;;5036775;28;20691;-88
2022/11/22 13:32:19;;;;;;;4.18;1.58;;;;;;;;;;5039905;28;20276;-89
2022/11/22 13:35:07;;;;;;;3.30;1.60;;;;;;;;;;5039539;28;20221;-90
2022/11/22 13:37:41;;;;;;;1.33;1.20;;;;;;;;;;5019615;28;20207;-88
2022/11/22 13:40:33;;;;;;;1.40;1.30;;;;;;;;;;5022592;28;20203;-91
2022/11/22 13:43:48;;;;;;;3.60;1.48;;;;;;;;;;5042172;28;20213;-88
2022/11/22 13:46:52;;;;;;;3.55;2.17;;;;;;;;;;5041520;28;20209;-87
2022/11/22 13:49:34;;;;;;;2.50;1.50;;;;;;;;;;5038311;28;20205;-88
2022/11/22 13:52:05;;;;;;;2.20;1.80;;;;;;;;;;5040684;28;20281;-89
2022/11/22 13:55:03;;;;;;;2.65;1.30;;;;;;;;;;5041154;28;20241;-89
2022/11/22 13:57:34;;;;;;;3.75;1.60;;;;;;;;;;5039053;28;20230;-89
2022/11/22 14:00:40;;;;;;;2.05;1.67;;;;;;;;;;5038982;28;20203;-87
2022/11/22 14:03:24;;;;;;;3.15;2.00;;;;;;;;;;5038970;28;20204;-89
2022/11/22 14:05:53;;;;;;;1.88;1.27;;;;;;;;;;5039530;28;20206;-89
2022/11/22 14:08:35;;;;;;;2.10;1.67;;;;;;;;;;5038593;28;20209;-88
2022/11/22 14:11:29;;;;;;;1.70;1.45;;;;;;;;;;5038939;28;20702;-90
2022/11/22 14:14:03;;;;;;;1.67;1.30;;;;;;;;;;5037720;28;20285;-89
2022/11/22 14:16:50;;;;;;;3.85;1.52;;;;;;;;;;5037844;28;20229;-89
2022/11/22 14:19:57;;;;;;;2.55;1.50;;;;;;;;;;5038156;28;20800;-87
2022/11/22 14:22:33;;;;;;;2.08;1.83;;;;;;;;;;5016688;28;20234;-90
2022/11/22 14:25:36;;;;;;;2.53;1.60;;;;;;;;;;5017144;28;20598;-88
2022/11/22 14:28:20;;;;;;;2.78;1.38;;;;;;;;;;5010394;28;20203;-88
2022/11/22 14:30:50;;;;;;;2.05;1.38;;;;;;;;;;5017651;28;20268;-88
2022/11/22 14:33:19;;;;;;;4.85;1.67;;;;;;;;;;5017524;28;20311;-89
2022/11/22 14:36:16;;;;;;;1.98;1.30;;;;;;;;;;5023311;28;20226;-88
2022/11/22 14:38:44;;;;;;;1.63;1.20;;;;;;;;;;5032236;28;20202;-89
2022/11/22 14:41:43;;;;;;;1.75;1.30;;;;;;;;;;5036132;28;20212;-88
2022/11/22 14:44:18;;;;;;;3.42;1.48;;;;;;;;;;5036785;28;20764;-88
2022/11/22 14:46:53;;;;;;;2.90;1.65;;;;;;;;;;5037548;28;20194;-89
2022/11/22 14:49:33;;;;;;;3.63;1.65;;;;;;;;;;5037917;28;20196;-89
2022/11/22 14:52:01;;;;;;;1.45;1.27;;;;;;;;;;5037766;28;20285;-88
2022/11/22 14:54:39;;;;;;;6.10;1.40;;;;;;;;;;5037603;28;20226;-90
2022/11/22 14:57:09;;;;;;;3.13;1.70;;;;;;;;;;5037714;28;20603;-89
2022/11/22 15:00:07;;;;;;;6.80;1.55;;;;;;;;;;5037928;28;20209;-89
2022/11/22 15:03:18;;;;;;;3.28;1.42;;;;;;;;;;5037866;28;20317;-87
2022/11/22 15:06:09;;;;;;;2.40;1.13;;;;;;;;;;5037299;28;20200;-88
2022/11/22 15:08:43;;;;;;;2.00;1.20;;;;;;;;;;5036902;28;20210;-88
2022/11/22 15:11:30;;;;;;;2.35;1.20;;;;;;;;;;5035345;28;20201;-87
2022/11/22 15:14:17;;;;;;;1.70;1.23;;;;;;;;;;5032308;28;20253;-87
2022/11/22 15:16:46;;;;;;;1.20;1.10;;;;;;;;;;5032281;28;20257;-86
2022/11/22 15:19:35;;;;;;;1.50;1.10;;;;;;;;;;5031728;28;20213;-86
2022/11/22 15:22:07;;;;;;;5.65;1.45;;;;;;;;;;5034343;28;20212;-89
2022/11/22 15:24:40;;;;;;;3.28;1.27;;;;;;;;;;5031874;28;20229;-87